createdAt,value
2019-02-03T00:01:02.883Z,31.43
2019-02-03T00:03:31.327Z,31.10
2019-02-03T00:05:59.818Z,29.47
2019-02-03T00:08:28.317Z,31.20
2019-02-03T00:10:56.765Z,31.43
2019-02-03T00:13:25.218Z,32.33
2019-02-03T00:15:53.645Z,31.07
2019-02-03T00:18:22.136Z,31.17
2019-02-03T00:20:50.610Z,34.63
2019-02-03T00:23:19.141Z,30.67
2019-02-03T00:25:47.584Z,32.07
2019-02-03T00:28:16.071Z,34.53
2019-02-03T00:30:44.662Z,34.83
2019-02-03T00:33:13.083Z,32.20
2019-02-03T00:35:41.543Z,34.53
2019-02-03T00:38:21.296Z,33.43
2019-02-03T00:40:40.223Z,34.23
2019-02-03T00:43:09.014Z,32.50
2019-02-03T00:45:37.458Z,34.60
2019-02-03T00:48:06.021Z,35.70
2019-02-03T00:50:34.456Z,32.70
2019-02-03T00:53:03.034Z,38.47
2019-02-03T00:55:31.492Z,35.43
2019-02-03T00:57:59.963Z,34.07
2019-02-03T01:00:28.607Z,39.73
2019-02-03T01:02:57.039Z,33.60
2019-02-03T01:05:25.489Z,39.53
2019-02-03T01:07:54.060Z,36.43
2019-02-03T01:10:23.413Z,34.40
2019-02-03T01:12:52.110Z,37.70
2019-02-03T01:15:20.745Z,37.67
2019-02-03T01:17:49.361Z,33.13
2019-02-03T01:20:23.529Z,37.60
2019-02-03T01:22:52.100Z,38.30
2019-02-03T01:25:20.875Z,37.33
2019-02-03T01:27:49.456Z,38.63
2019-02-03T01:30:19.838Z,37.60
2019-02-03T01:32:48.459Z,37.80
2019-02-03T01:35:17.321Z,42.03
2019-02-03T01:37:45.881Z,37.40
2019-02-03T01:40:16.656Z,33.07
2019-02-03T01:42:45.173Z,37.87
2019-02-03T01:45:16.508Z,39.20
2019-02-03T01:47:45.244Z,36.77
2019-02-03T01:50:14.831Z,32.63
2019-02-03T01:52:44.072Z,32.70
2019-02-03T01:55:15.217Z,33.60
2019-02-03T01:57:43.669Z,30.57
2019-02-03T02:00:15.097Z,33.90
2019-02-03T02:02:43.586Z,28.83
2019-02-03T02:05:12.949Z,31.97
2019-02-03T02:07:51.124Z,30.97
2019-02-03T02:10:20.538Z,35.77
2019-02-03T02:12:49.155Z,31.90
2019-02-03T02:15:20.082Z,30.87
2019-02-03T02:17:49.108Z,32.70
2019-02-03T02:20:25.384Z,30.60
2019-02-03T02:22:54.275Z,32.83
2019-02-03T02:25:22.788Z,28.97
2019-02-03T02:27:51.447Z,28.73
2019-02-03T02:30:23.004Z,32.60
2019-02-03T02:32:51.502Z,25.93
2019-02-03T02:35:20.081Z,29.90
2019-02-03T02:37:48.583Z,32.50
2019-02-03T02:40:22.073Z,27.70
2019-02-03T02:42:50.645Z,31.50
2019-02-03T02:45:19.293Z,25.73
2019-02-03T02:47:47.794Z,34.90
2019-02-03T02:50:26.021Z,27.33
2019-02-03T02:52:54.428Z,28.70
2019-02-03T02:55:22.948Z,28.57
2019-02-03T02:57:51.700Z,30.67
2019-02-03T03:00:22.186Z,28.10
2019-02-03T03:02:50.921Z,32.60
2019-02-03T03:05:19.511Z,32.33
2019-02-03T03:07:48.206Z,27.00
2019-02-03T03:10:18.367Z,32.50
2019-02-03T03:12:47.017Z,27.27
2019-02-03T03:15:20.771Z,26.67
2019-02-03T03:17:49.750Z,29.47
2019-02-03T03:20:22.183Z,29.60
2019-02-03T03:22:51.064Z,27.40
2019-02-03T03:25:21.227Z,25.87
2019-02-03T03:27:49.952Z,32.13
2019-02-03T03:30:26.118Z,25.87
2019-02-03T03:32:54.979Z,26.63
2019-02-03T03:35:24.212Z,26.30
2019-02-03T03:37:52.790Z,25.30
2019-02-03T03:40:26.466Z,21.70
2019-02-03T03:42:55.230Z,26.33
2019-02-03T03:45:23.845Z,28.90
2019-02-03T03:47:52.289Z,27.87
2019-02-03T03:50:20.778Z,25.20
2019-02-03T03:52:49.213Z,31.60
2019-02-03T03:55:17.706Z,27.30
2019-02-03T03:57:46.272Z,28.90
2019-02-03T04:00:19.806Z,23.70
2019-02-03T04:02:48.754Z,23.80
2019-02-03T04:05:17.306Z,25.77
2019-02-03T04:07:45.823Z,26.83
2019-02-03T04:10:17.149Z,24.43
2019-02-03T04:12:45.668Z,20.47
2019-02-03T04:15:16.183Z,27.60
2019-02-03T04:17:44.774Z,27.57
2019-02-03T04:20:30.173Z,24.17
2019-02-03T04:22:58.847Z,25.40
2019-02-03T04:25:27.397Z,28.97
2019-02-03T04:27:56.241Z,25.90
2019-02-03T04:30:26.469Z,26.70
2019-02-03T04:32:55.681Z,22.27
2019-02-03T04:35:24.145Z,24.90
2019-02-03T04:37:52.730Z,22.23
2019-02-03T04:40:22.408Z,21.27
2019-02-03T04:42:50.903Z,20.40
2019-02-03T04:45:22.289Z,21.73
2019-02-03T04:47:49.856Z,22.97
2019-02-03T04:50:20.147Z,19.93
2019-02-03T04:52:48.633Z,21.43
2019-02-03T04:55:21.239Z,23.93
2019-02-03T04:57:49.806Z,24.70
2019-02-03T05:00:25.571Z,21.70
2019-02-03T05:02:54.003Z,22.27
2019-02-03T05:05:22.651Z,25.70
2019-02-03T05:07:51.073Z,21.53
2019-02-03T05:10:19.958Z,22.43
2019-02-03T05:12:48.512Z,20.07
2019-02-03T05:15:22.460Z,20.73
2019-02-03T05:17:51.233Z,20.87
2019-02-03T05:20:22.193Z,21.60
2019-02-03T05:22:50.612Z,24.33
2019-02-03T05:25:19.056Z,24.73
2019-02-03T05:27:47.474Z,21.83
2019-02-03T05:30:24.521Z,22.53
2019-02-03T05:32:52.928Z,25.57
2019-02-03T05:35:21.609Z,22.57
2019-02-03T05:37:50.022Z,25.77
2019-02-03T05:40:18.629Z,26.73
2019-02-03T05:42:47.149Z,28.17
2019-02-03T05:45:22.659Z,23.77
2019-02-03T05:47:51.638Z,23.27
2019-02-03T05:50:21.288Z,23.50
2019-02-03T05:52:49.724Z,24.73
2019-02-03T05:55:19.208Z,28.80
2019-02-03T05:57:47.809Z,22.40
2019-02-03T06:00:20.381Z,27.00
2019-02-03T06:02:49.062Z,24.63
2019-02-03T06:05:17.585Z,22.67
2019-02-03T06:07:46.090Z,22.47
2019-02-03T06:10:16.964Z,25.80
2019-02-03T06:12:46.209Z,24.33
2019-02-03T06:15:15.237Z,23.33
2019-02-03T06:17:43.816Z,24.30
2019-02-03T06:20:15.297Z,26.67
2019-02-03T06:22:45.313Z,29.57
2019-02-03T06:25:14.309Z,26.47
2019-02-03T06:27:42.815Z,26.80
2019-02-03T06:30:23.249Z,22.17
2019-02-03T06:32:51.686Z,21.93
2019-02-03T06:35:20.113Z,22.53
2019-02-03T06:37:48.637Z,26.57
2019-02-03T06:40:17.194Z,26.90
2019-02-03T06:42:45.647Z,24.57
2019-02-03T06:45:24.501Z,30.93
2019-02-03T06:47:52.926Z,27.23
2019-02-03T06:50:21.390Z,27.20
2019-02-03T06:52:49.830Z,26.00
2019-02-03T06:55:18.319Z,26.90
2019-02-03T06:57:46.772Z,25.57
2019-02-03T07:00:16.588Z,26.20
2019-02-03T07:02:45.005Z,31.10
2019-02-03T07:05:13.584Z,27.37
2019-02-03T07:07:42.014Z,32.13
2019-02-03T07:10:12.271Z,26.47
2019-02-03T07:12:40.743Z,31.90
2019-02-03T07:15:10.505Z,31.97
2019-02-03T07:17:38.930Z,31.77
2019-02-03T07:20:10.573Z,34.57
2019-02-03T07:22:39.279Z,33.00
2019-02-03T07:25:08.405Z,38.00
2019-02-03T07:27:36.857Z,34.97
2019-02-03T07:30:22.697Z,38.17
2019-02-03T07:32:51.493Z,39.43
2019-02-03T07:35:19.929Z,39.70
2019-02-03T07:37:48.390Z,39.67
2019-02-03T07:40:20.661Z,39.40
2019-02-03T07:42:49.156Z,37.50
2019-02-03T07:45:17.589Z,34.37
2019-02-03T07:47:46.271Z,42.37
2019-02-03T07:50:16.745Z,37.83
2019-02-03T07:52:45.288Z,39.30
2019-02-03T07:55:14.671Z,37.97
2019-02-03T07:57:43.233Z,40.77
2019-02-03T08:00:13.641Z,44.73
2019-02-03T08:02:42.131Z,37.00
2019-02-03T08:05:11.604Z,43.03
2019-02-03T08:07:40.034Z,35.63
2019-02-03T08:10:10.961Z,42.70
2019-02-03T08:12:39.473Z,42.03
2019-02-03T08:15:10.972Z,37.10
2019-02-03T08:17:40.689Z,41.90
2019-02-03T08:20:12.527Z,45.63
2019-02-03T08:22:41.108Z,43.57
2019-02-03T08:25:12.125Z,42.97
2019-02-03T08:27:40.568Z,44.33
2019-02-03T08:30:15.367Z,40.63
2019-02-03T08:32:43.836Z,39.07
2019-02-03T08:35:12.394Z,44.33
2019-02-03T08:37:40.853Z,44.63
2019-02-03T08:40:12.360Z,35.50
2019-02-03T08:42:41.137Z,43.03
2019-02-03T08:45:12.339Z,44.00
2019-02-03T08:47:40.992Z,46.40
2019-02-03T08:50:15.437Z,49.57
2019-02-03T08:52:43.958Z,42.83
2019-02-03T08:55:13.218Z,56.30
2019-02-03T08:57:42.802Z,48.63
2019-02-03T09:00:17.520Z,49.70
2019-02-03T09:02:46.172Z,49.93
2019-02-03T09:05:16.495Z,49.30
2019-02-03T09:07:45.441Z,47.67
2019-02-03T09:10:16.445Z,46.87
2019-02-03T09:12:44.945Z,47.73
2019-02-03T09:15:19.402Z,46.70
2019-02-03T09:17:46.781Z,44.00
2019-02-03T09:20:29.427Z,51.83
2019-02-03T09:22:58.080Z,46.30
2019-02-03T09:25:26.668Z,46.90
2019-02-03T09:27:55.264Z,50.47
2019-02-03T09:30:26.300Z,42.17
2019-02-03T09:32:55.000Z,40.33
2019-02-03T09:35:23.688Z,40.90
2019-02-03T09:37:52.351Z,38.80
2019-02-03T09:40:23.253Z,35.10
2019-02-03T09:42:51.735Z,39.27
2019-02-03T09:45:21.955Z,35.87
2019-02-03T09:47:50.754Z,33.87
2019-02-03T09:50:21.719Z,36.13
2019-02-03T09:52:50.688Z,35.00
2019-02-03T09:55:19.284Z,39.13
2019-02-03T09:57:47.849Z,34.80
2019-02-03T10:00:22.370Z,41.90
2019-02-03T10:02:51.169Z,37.20
2019-02-03T10:05:19.771Z,41.10
2019-02-03T10:07:48.481Z,35.23
2019-02-03T10:10:28.577Z,37.30
2019-02-03T10:12:57.455Z,32.17
2019-02-03T10:15:26.000Z,34.13
2019-02-03T10:17:54.481Z,35.60
2019-02-03T10:20:23.554Z,34.17
2019-02-03T10:22:52.085Z,30.83
2019-02-03T10:25:23.600Z,33.33
2019-02-03T10:27:52.197Z,33.20
2019-02-03T10:30:22.553Z,32.20
2019-02-03T10:32:51.546Z,34.90
2019-02-03T10:35:28.457Z,26.13
2019-02-03T10:37:57.932Z,27.40
2019-02-03T10:40:28.884Z,32.97
2019-02-03T10:42:58.963Z,21.40
2019-02-03T10:45:27.813Z,27.70
2019-02-03T10:47:56.351Z,31.67
2019-02-03T10:50:27.907Z,26.00
2019-02-03T10:52:56.578Z,28.70
2019-02-03T10:55:25.268Z,24.77
2019-02-03T10:57:53.989Z,28.97
2019-02-03T11:00:27.752Z,27.27
2019-02-03T11:02:56.303Z,20.23
2019-02-03T11:05:27.601Z,26.13
2019-02-03T11:07:56.464Z,24.77
2019-02-03T11:10:27.145Z,26.13
2019-02-03T11:12:55.941Z,24.10
2019-02-03T11:15:25.111Z,23.73
2019-02-03T11:17:53.808Z,18.83
2019-02-03T11:20:33.028Z,18.43
2019-02-03T11:23:01.701Z,18.77
2019-02-03T11:25:31.377Z,16.67
2019-02-03T11:28:00.145Z,19.87
2019-02-03T11:30:30.606Z,19.93
2019-02-03T11:33:06.946Z,19.30
2019-02-03T11:35:31.579Z,16.57
2019-02-03T11:38:00.330Z,21.30
2019-02-03T11:40:30.924Z,20.97
2019-02-03T11:42:59.437Z,20.70
2019-02-03T11:45:31.045Z,23.17
2019-02-03T11:47:59.707Z,22.40
2019-02-03T11:50:34.208Z,17.13
2019-02-03T11:53:03.197Z,20.17
2019-02-03T11:55:31.792Z,24.90
2019-02-03T11:58:00.412Z,23.67
2019-02-03T12:00:30.924Z,21.83
2019-02-03T12:02:59.473Z,25.83
2019-02-03T12:05:28.009Z,24.03
2019-02-03T12:07:56.455Z,24.63
2019-02-03T12:10:27.404Z,24.13
2019-02-03T12:12:56.110Z,23.70
2019-02-03T12:15:26.042Z,20.80
2019-02-03T12:17:54.812Z,26.07
2019-02-03T12:20:23.449Z,26.47
2019-02-03T12:22:51.912Z,24.23
2019-02-03T12:25:28.686Z,20.57
2019-02-03T12:27:57.241Z,21.90
2019-02-03T12:30:28.495Z,25.93
2019-02-03T12:32:57.126Z,22.03
2019-02-03T12:35:25.737Z,26.73
2019-02-03T12:37:54.469Z,24.00
2019-02-03T12:40:25.515Z,22.90
2019-02-03T12:42:54.321Z,20.73
2019-02-03T12:45:22.901Z,24.00
2019-02-03T12:47:52.406Z,20.87
2019-02-03T12:50:20.899Z,21.17
2019-02-03T12:52:50.174Z,22.33
2019-02-03T12:55:23.655Z,20.80
2019-02-03T12:57:52.366Z,22.47
2019-02-03T13:00:32.645Z,22.47
2019-02-03T13:03:01.242Z,27.07
2019-02-03T13:05:30.147Z,24.97
2019-02-03T13:07:59.849Z,19.90
2019-02-03T13:10:31.428Z,18.53
2019-02-03T13:13:00.446Z,22.97
2019-02-03T13:15:39.968Z,23.50
2019-02-03T13:18:08.642Z,21.20
2019-02-03T13:20:37.633Z,19.17
2019-02-03T13:23:07.056Z,20.60
2019-02-03T13:25:35.693Z,20.50
2019-02-03T13:28:04.589Z,21.27
2019-02-03T13:30:41.437Z,20.53
2019-02-03T13:33:10.493Z,24.63
2019-02-03T13:35:39.092Z,21.97
2019-02-03T13:38:08.301Z,28.43
2019-02-03T13:40:36.885Z,24.97
2019-02-03T13:43:05.667Z,29.00
2019-02-03T13:45:34.354Z,31.20
2019-02-03T13:48:03.011Z,25.23
2019-02-03T13:50:31.632Z,27.37
2019-02-03T13:53:00.203Z,26.90
2019-02-03T13:55:28.863Z,23.90
2019-02-03T13:57:57.543Z,26.40
2019-02-03T14:00:35.320Z,31.13
2019-02-03T14:03:04.360Z,28.10
2019-02-03T14:05:32.814Z,24.83
2019-02-03T14:08:01.383Z,29.53
2019-02-03T14:10:32.226Z,24.33
2019-02-03T14:13:01.021Z,29.40
2019-02-03T14:15:29.712Z,24.30
2019-02-03T14:17:58.322Z,23.23
2019-02-03T14:20:31.167Z,24.30
2019-02-03T14:23:00.243Z,25.53
2019-02-03T14:25:29.411Z,21.83
2019-02-03T14:27:58.278Z,22.57
2019-02-03T14:30:39.715Z,25.77
2019-02-03T14:33:02.776Z,26.10
2019-02-03T14:35:33.095Z,21.43
2019-02-03T14:38:01.459Z,23.27
2019-02-03T14:40:30.072Z,23.30
2019-02-03T14:43:01.956Z,25.63
2019-02-03T14:45:29.000Z,31.40
2019-02-03T14:47:57.538Z,25.50
2019-02-03T14:50:26.798Z,23.00
2019-02-03T14:52:57.792Z,31.20
2019-02-03T14:55:32.247Z,29.97
2019-02-03T14:58:00.755Z,29.00
2019-02-03T15:00:37.604Z,27.67
2019-02-03T15:03:08.761Z,25.60
2019-02-03T15:05:37.518Z,26.30
2019-02-03T15:08:06.934Z,24.27
2019-02-03T15:10:35.602Z,24.80
2019-02-03T15:13:13.149Z,29.30
2019-02-03T15:15:36.401Z,25.00
2019-02-03T15:18:05.633Z,28.43
2019-02-03T15:20:34.289Z,27.37
2019-02-03T15:23:02.786Z,30.57
2019-02-03T15:25:31.524Z,28.13
2019-02-03T15:28:00.376Z,27.57
2019-02-03T15:30:34.406Z,30.40
2019-02-03T15:33:02.927Z,25.87
2019-02-03T15:35:31.556Z,26.27
2019-02-03T15:38:00.044Z,30.90
2019-02-03T15:40:28.646Z,29.13
2019-02-03T15:42:57.207Z,27.13
2019-02-03T15:45:27.109Z,24.70
2019-02-03T15:47:55.631Z,24.80
2019-02-03T15:50:28.339Z,38.93
2019-02-03T15:52:56.928Z,42.47
2019-02-03T15:55:33.586Z,40.03
2019-02-03T15:58:02.188Z,27.60
2019-02-03T16:00:33.386Z,25.87
2019-02-03T16:03:01.906Z,27.40
2019-02-03T16:05:30.469Z,28.40
2019-02-03T16:07:59.135Z,26.73
2019-02-03T16:10:28.087Z,27.37
2019-02-03T16:12:56.586Z,28.13
2019-02-03T16:15:25.127Z,29.30
2019-02-03T16:17:53.653Z,26.23
2019-02-03T16:20:24.188Z,30.20
2019-02-03T16:22:52.760Z,26.47
2019-02-03T16:25:22.452Z,27.80
2019-02-03T16:27:51.559Z,26.27
2019-02-03T16:30:22.861Z,31.10
2019-02-03T16:32:51.493Z,26.73
2019-02-03T16:35:20.565Z,25.33
2019-02-03T16:37:49.179Z,27.80
2019-02-03T16:40:20.196Z,33.43
2019-02-03T16:42:48.858Z,29.70
2019-02-03T16:45:17.472Z,29.07
2019-02-03T16:47:46.172Z,28.13
2019-02-03T16:50:20.702Z,28.13
2019-02-03T16:52:49.283Z,31.50
2019-02-03T16:55:18.848Z,32.13
2019-02-03T16:57:47.728Z,27.60
2019-02-03T17:00:18.881Z,26.47
2019-02-03T17:02:47.606Z,27.23
2019-02-03T17:05:25.327Z,33.00
2019-02-03T17:07:49.140Z,29.43
2019-02-03T17:10:19.694Z,26.97
2019-02-03T17:12:48.290Z,44.60
2019-02-03T17:15:37.462Z,162.83
2019-02-03T17:18:08.219Z,30.43
2019-02-03T17:20:36.890Z,30.63
2019-02-03T17:23:05.806Z,32.00
2019-02-03T17:25:37.387Z,27.03
2019-02-03T17:28:05.985Z,26.93
2019-02-03T17:30:34.755Z,27.90
2019-02-03T17:33:03.431Z,25.23
2019-02-03T17:35:31.988Z,27.07
2019-02-03T17:38:00.716Z,25.63
2019-02-03T17:40:29.147Z,24.20
2019-02-03T17:42:57.600Z,22.30
2019-02-03T17:45:26.973Z,21.23
2019-02-03T17:47:55.469Z,23.90
2019-02-03T17:50:28.592Z,20.33
2019-02-03T17:52:57.186Z,24.13
2019-02-03T17:55:26.005Z,26.67
2019-02-03T17:57:54.495Z,25.33
2019-02-03T18:00:32.407Z,24.23
2019-02-03T18:03:00.910Z,21.30
2019-02-03T18:05:29.444Z,23.80
2019-02-03T18:07:58.083Z,18.80
2019-02-03T18:10:28.004Z,17.83
2019-02-03T18:12:56.498Z,23.10
2019-02-03T18:15:25.184Z,20.80
2019-02-03T18:17:53.762Z,21.60
2019-02-03T18:20:23.843Z,24.20
2019-02-03T18:22:52.338Z,20.87
2019-02-03T18:25:20.948Z,21.40
2019-02-03T18:27:49.583Z,17.77
2019-02-03T18:30:26.581Z,18.07
2019-02-03T18:32:57.146Z,22.20
2019-02-03T18:35:25.870Z,22.27
2019-02-03T18:38:00.154Z,17.27
2019-02-03T18:40:29.181Z,25.93
2019-02-03T18:42:57.747Z,20.23
2019-02-03T18:45:27.643Z,21.33
2019-02-03T18:47:56.168Z,18.30
2019-02-03T18:50:24.796Z,21.13
2019-02-03T18:52:53.802Z,23.23
2019-02-03T18:55:24.938Z,21.13
2019-02-03T18:57:53.644Z,21.27
2019-02-03T19:00:24.281Z,20.73
2019-02-03T19:02:53.110Z,20.50
2019-02-03T19:05:26.976Z,22.47
2019-02-03T19:07:55.499Z,18.67
2019-02-03T19:10:26.139Z,19.87
2019-02-03T19:12:54.793Z,21.10
2019-02-03T19:15:25.114Z,18.90
2019-02-03T19:17:53.669Z,20.80
2019-02-03T19:20:27.667Z,18.93
2019-02-03T19:22:56.361Z,19.33
2019-02-03T19:25:24.989Z,19.93
2019-02-03T19:27:53.586Z,19.30
2019-02-03T19:30:23.749Z,20.60
2019-02-03T19:32:52.523Z,18.73
2019-02-03T19:35:23.653Z,18.50
2019-02-03T19:37:52.184Z,18.80
2019-02-03T19:40:22.851Z,18.60
2019-02-03T19:42:51.462Z,15.60
2019-02-03T19:45:22.080Z,18.13
2019-02-03T19:47:50.981Z,15.57
2019-02-03T19:50:30.663Z,20.80
2019-02-03T19:52:59.199Z,17.20
2019-02-03T19:55:27.757Z,18.40
2019-02-03T19:57:56.273Z,18.00
2019-02-03T20:00:27.839Z,13.80
2019-02-03T20:02:56.690Z,14.87
2019-02-03T20:05:25.350Z,12.97
2019-02-03T20:07:53.814Z,12.93
2019-02-03T20:10:29.637Z,13.03
2019-02-03T20:12:58.140Z,11.97
2019-02-03T20:15:26.968Z,10.00
2019-02-03T20:17:57.952Z,11.87
2019-02-03T20:20:28.353Z,9.50
2019-02-03T20:22:56.785Z,10.03
2019-02-03T20:25:25.665Z,10.67
2019-02-03T20:27:54.166Z,13.60
2019-02-03T20:30:37.352Z,14.27
2019-02-03T20:32:54.674Z,10.17
2019-02-03T20:35:25.253Z,12.00
2019-02-03T20:37:53.730Z,13.13
2019-02-03T20:40:30.206Z,13.87
2019-02-03T20:42:58.531Z,10.40
2019-02-03T20:45:27.027Z,12.40
2019-02-03T20:47:55.591Z,9.53
2019-02-03T20:50:24.982Z,9.90
2019-02-03T20:52:53.881Z,11.20
2019-02-03T20:55:22.435Z,12.50
2019-02-03T20:57:50.917Z,9.87
2019-02-03T21:00:30.297Z,13.27
2019-02-03T21:02:59.167Z,11.93
2019-02-03T21:05:27.714Z,11.90
2019-02-03T21:07:56.235Z,11.83
2019-02-03T21:10:26.185Z,11.23
2019-02-03T21:12:55.265Z,11.37
2019-02-03T21:15:33.025Z,12.80
2019-02-03T21:17:56.969Z,10.77
2019-02-03T21:20:27.641Z,10.97
2019-02-03T21:22:56.300Z,9.10
2019-02-03T21:25:24.983Z,9.60
2019-02-03T21:27:53.439Z,11.90
2019-02-03T21:30:24.610Z,11.47
2019-02-03T21:32:53.337Z,9.97
2019-02-03T21:35:21.816Z,10.57
2019-02-03T21:37:50.276Z,11.10
2019-02-03T21:40:24.648Z,10.57
2019-02-03T21:42:53.396Z,7.17
2019-02-03T21:45:21.998Z,7.73
2019-02-03T21:47:50.896Z,9.80
2019-02-03T21:50:22.052Z,7.20
2019-02-03T21:52:50.540Z,10.40
2019-02-03T21:55:20.715Z,8.50
2019-02-03T21:57:49.271Z,8.77
2019-02-03T22:00:23.774Z,12.97
2019-02-03T22:02:52.336Z,8.00
2019-02-03T22:05:20.962Z,11.57
2019-02-03T22:07:49.504Z,12.13
2019-02-03T22:10:29.390Z,9.30
2019-02-03T22:12:57.941Z,9.73
2019-02-03T22:15:26.484Z,9.43
2019-02-03T22:17:55.070Z,8.40
2019-02-03T22:20:24.802Z,10.50
2019-02-03T22:22:53.376Z,8.20
2019-02-03T22:25:21.954Z,7.10
2019-02-03T22:27:51.061Z,7.50
2019-02-03T22:30:24.764Z,8.50
2019-02-03T22:32:53.352Z,6.40
2019-02-03T22:35:22.309Z,8.20
2019-02-03T22:37:50.910Z,8.60
2019-02-03T22:40:20.644Z,8.37
2019-02-03T22:42:49.157Z,7.10
2019-02-03T22:45:22.732Z,8.70
2019-02-03T22:47:51.288Z,12.53
2019-02-03T22:50:22.277Z,8.70
2019-02-03T22:52:50.837Z,8.43
2019-02-03T22:55:19.329Z,9.20
2019-02-03T22:57:47.967Z,7.13
2019-02-03T23:00:51.774Z,7.10
2019-02-03T23:03:22.598Z,7.73
2019-02-03T23:05:51.294Z,8.90
2019-02-03T23:08:19.703Z,7.17
2019-02-03T23:10:48.219Z,8.47
2019-02-03T23:13:16.710Z,7.47
2019-02-03T23:15:45.341Z,6.80
2019-02-03T23:18:14.206Z,8.97
2019-02-03T23:20:42.772Z,9.43
2019-02-03T23:23:11.276Z,7.63
2019-02-03T23:25:39.714Z,6.67
2019-02-03T23:28:08.160Z,8.30
2019-02-03T23:30:36.598Z,7.70
2019-02-03T23:33:05.171Z,7.13
2019-02-03T23:35:33.726Z,6.37
2019-02-03T23:38:02.181Z,5.87
2019-02-03T23:40:30.671Z,12.13
2019-02-03T23:42:59.096Z,7.47
2019-02-03T23:45:27.565Z,6.80
2019-02-03T23:47:56.210Z,9.00
2019-02-03T23:50:24.701Z,7.07
2019-02-03T23:52:53.144Z,8.57
2019-02-03T23:55:21.557Z,6.90
2019-02-03T23:57:50.061Z,6.67
